Göttingen, Allemagne

15:43 CEST le 01 septembre 2014 (GMT +0200)
göttingen,de | Change Station
CLOSE
Current Station
Stations météorologiques personnelles
Location: Göttingen, NIEDERSACHSEN
Altitude: 741 ft
Stations météo à proximité

Alt. 741 ft 51.53 °N, 9.86 °E | Updated 10 seconds ago

Mostly Cloudy
Nuageux
61.3 ° F
Paraît 61.3 ° F
N
4.0
Vent Variable Vent de NNO
Gusts 4.9 mph

Aujourd'hui
Haut(e) -- | Bas -- ° F
--% Risque de précip.
Hier
Haut(e) -- | Bas -- ° F
Precip. -- pouce
6:32 AM 8:06 PM
Lune montante, 41% visible
Pression 30.12 pouce
Visibilité 5.6 Miles terrestres
Nuages Peu 1100 ft
Nuages épars 1300 ft
Nuageux 2400 ft
Point de rosée 59 ° F
Humidité 93%
Précipitations 0.05 pouce
Profondeur de la couche neigeuse Non disponible.
UV 1.0 sur 12
Pollen Non disponible.
Qualité de l'air Non disponible.
Flu Activity Non disponible.
SPECI EDVK 011332Z 30008KT 9000 FEW011 SCT013 BKN024 16/13 Q1020 RMK ATIS V

More Conditions Fewer Conditions

Pression 30.12 pouce
Visibilité 5.6 Miles terrestres
Nuages Peu 1100 ft
Nuages épars 1300 ft
Nuageux 2400 ft
Point de rosée 59 ° F
Humidité 93%
Précipitations 0.05 pouce
Profondeur de la couche neigeuse Non disponible.
UV 1.0 sur 12
Pollen Non disponible.
Qualité de l'air Non disponible.
Flu Activity Non disponible.
SPECI EDVK 011332Z 30008KT 9000 FEW011 SCT013 BKN024 16/13 Q1020 RMK ATIS V

More Conditions Fewer Conditions

10-Day Weather Forecast

Almanac

Astronomie

Sep. 01, 2014 Lever Coucher
Temps réel 06:32 CEST 20:06 CEST
Crépuscule civil 05:57 CEST 20:41 CEST
Crépuscule nautique 05:14 CEST 21:24 CEST
Crépuscule astronomique 04:27 CEST 22:11 CEST
Lune 13:48 CEST 23:07 CEST
Durée de lumière visible 14h 44m
Longueur du jour
13h 34m
Tomorrow will be 3m 48s shorter.
Lune montante, 41% of the Moon is Illuminated
Aujourd'hui
Lune montante
Sep 2
Premier quartier
Sep 8
Pleine lune
Sep 15
Dernier quartier
Sep 24
Nouveau

Les extrêmes de température d’hier

Country Highs Country Lows

Community

WunderPhotos

Upload Photos

1,749,222 Photos téléchargées !

Nearby

Qualité de l'air

Not available.

Épaisseur de neige

Not available.

Activité sismique

Ville Distance Mag. Time & Date
No recent earthquake activity has been reported nearby.
Minimum magnitude displayed is 2.5.

Températures des eaux côtières

Lieu Température
Aucun rapport de station

Stations météo à proximité